createdAt,value
2019-05-15T00:01:08.981Z,49.02
2019-05-15T00:03:39.348Z,49.24
2019-05-15T00:06:09.266Z,49.61
2019-05-15T00:08:38.962Z,49.54
2019-05-15T00:11:08.641Z,49.93
2019-05-15T00:13:39.139Z,49.99
2019-05-15T00:16:09.010Z,50.48
2019-05-15T00:18:39.203Z,50.51
2019-05-15T00:21:09.469Z,50.98
2019-05-15T00:23:39.369Z,51.35
2019-05-15T00:26:09.460Z,51.46
2019-05-15T00:28:39.346Z,51.43
2019-05-15T00:31:09.283Z,51.44
2019-05-15T00:33:39.519Z,51.11
2019-05-15T00:36:09.488Z,51.20
2019-05-15T00:38:39.312Z,51.29
2019-05-15T00:41:09.580Z,51.66
2019-05-15T00:43:39.476Z,51.79
2019-05-15T00:46:09.434Z,52.02
2019-05-15T00:48:40.012Z,52.16
2019-05-15T00:51:09.805Z,52.77
2019-05-15T00:53:39.552Z,52.68
2019-05-15T00:56:09.218Z,53.20
2019-05-15T00:58:40.217Z,53.41
2019-05-15T01:01:10.161Z,53.59
2019-05-15T01:03:39.941Z,53.67
2019-05-15T01:06:09.622Z,53.65
2019-05-15T01:08:39.532Z,53.68
2019-05-15T01:11:09.406Z,53.75
2019-05-15T01:13:39.180Z,54.03
2019-05-15T01:16:09.282Z,53.78
2019-05-15T01:18:39.440Z,54.06
2019-05-15T01:21:09.114Z,53.74
2019-05-15T01:23:39.937Z,53.90
2019-05-15T01:26:09.698Z,53.71
2019-05-15T01:28:39.490Z,53.68
2019-05-15T01:31:09.169Z,53.38
2019-05-15T01:33:39.333Z,53.45
2019-05-15T01:36:09.937Z,53.31
2019-05-15T01:38:39.621Z,53.49
2019-05-15T01:41:09.879Z,53.14
2019-05-15T01:43:40.597Z,53.28
2019-05-15T01:46:10.251Z,54.11
2019-05-15T01:48:39.989Z,53.41
2019-05-15T01:51:10.623Z,53.63
2019-05-15T01:53:40.321Z,53.66
2019-05-15T01:56:10.041Z,53.72
2019-05-15T01:58:39.709Z,53.78
2019-05-15T02:01:09.409Z,54.13
2019-05-15T02:03:39.105Z,54.43
2019-05-15T02:06:08.886Z,53.72
2019-05-15T02:08:39.433Z,54.10
2019-05-15T02:11:09.441Z,54.17
2019-05-15T02:13:39.293Z,54.28
2019-05-15T02:16:09.236Z,54.49
2019-05-15T02:18:39.378Z,54.74
2019-05-15T02:21:10.320Z,54.72
2019-05-15T02:23:40.624Z,54.95
2019-05-15T02:26:10.289Z,55.10
2019-05-15T02:28:40.055Z,55.16
2019-05-15T02:31:10.711Z,54.56
2019-05-15T02:33:40.570Z,54.94
2019-05-15T02:36:10.398Z,54.92
2019-05-15T02:38:41.312Z,54.71
2019-05-15T02:41:11.112Z,54.98
2019-05-15T02:43:41.854Z,54.87
2019-05-15T02:46:11.490Z,55.22
2019-05-15T02:48:41.287Z,55.30
2019-05-15T02:51:11.005Z,55.60
2019-05-15T02:53:41.057Z,55.72
2019-05-15T02:56:10.743Z,56.03
2019-05-15T02:58:40.525Z,56.22
2019-05-15T03:01:10.375Z,56.41
2019-05-15T03:03:40.272Z,56.33
2019-05-15T03:06:10.303Z,56.25
2019-05-15T03:08:40.405Z,56.31
2019-05-15T03:11:10.227Z,56.50
2019-05-15T03:13:40.077Z,56.30
2019-05-15T03:16:10.277Z,56.23
2019-05-15T03:18:40.170Z,56.26
2019-05-15T03:21:10.097Z,56.12
2019-05-15T03:23:40.735Z,55.98
2019-05-15T03:26:11.825Z,56.09
2019-05-15T03:28:41.477Z,55.98
2019-05-15T03:31:33.268Z,56.25
2019-05-15T03:33:45.930Z,55.89
2019-05-15T03:36:14.321Z,56.03
2019-05-15T03:38:44.108Z,56.30
2019-05-15T03:41:13.769Z,56.22
2019-05-15T03:43:43.505Z,56.10
2019-05-15T03:46:13.169Z,56.70
2019-05-15T03:48:43.294Z,55.87
2019-05-15T03:51:12.956Z,56.67
2019-05-15T03:53:42.696Z,56.95
2019-05-15T03:56:12.375Z,56.41
2019-05-15T03:58:42.197Z,56.33
2019-05-15T04:01:28.352Z,53.77
2019-05-15T04:03:43.317Z,50.84
2019-05-15T04:06:12.987Z,48.37
2019-05-15T04:08:43.789Z,46.75
2019-05-15T04:11:13.456Z,45.65
2019-05-15T04:13:43.267Z,44.18
2019-05-15T04:19:13.317Z,41.86
2019-05-15T04:21:45.204Z,41.00
2019-05-15T04:24:15.003Z,40.13
2019-05-15T04:26:48.664Z,39.84
2019-05-15T04:29:19.526Z,39.14
2019-05-15T04:32:00.695Z,38.33
2019-05-15T04:34:21.745Z,38.41
2019-05-15T04:36:51.442Z,37.38
2019-05-15T04:39:21.096Z,37.10
2019-05-15T04:41:50.790Z,37.24
2019-05-15T04:44:20.453Z,36.25
2019-05-15T04:46:51.172Z,35.50
2019-05-15T04:49:20.831Z,34.88
2019-05-15T04:51:50.539Z,34.78
2019-05-15T04:54:20.344Z,34.37
2019-05-15T04:56:50.036Z,33.93
2019-05-15T04:59:20.039Z,33.58
2019-05-15T05:01:51.530Z,32.91
2019-05-15T05:04:21.376Z,32.79
2019-05-15T05:06:53.136Z,32.54
2019-05-15T05:09:22.881Z,32.59
2019-05-15T05:11:52.542Z,32.91
2019-05-15T05:14:22.286Z,32.29
2019-05-15T05:16:51.966Z,31.92
2019-05-15T05:19:21.636Z,31.26
2019-05-15T05:21:51.322Z,31.10
2019-05-15T05:24:21.050Z,30.40
2019-05-15T05:26:50.720Z,30.42
2019-05-15T05:29:20.476Z,29.72
2019-05-15T05:31:50.183Z,29.82
2019-05-15T05:34:19.901Z,29.29
2019-05-15T05:36:49.598Z,29.03
2019-05-15T05:39:20.043Z,28.98
2019-05-15T05:41:50.064Z,28.56
2019-05-15T05:44:19.830Z,28.37
2019-05-15T05:46:49.574Z,27.92
2019-05-15T05:49:19.245Z,27.52
2019-05-15T05:51:49.001Z,27.41
2019-05-15T05:54:18.705Z,27.13
2019-05-15T05:56:48.504Z,26.98
2019-05-15T05:59:18.564Z,25.85
2019-05-15T06:01:48.672Z,25.55
2019-05-15T06:04:19.297Z,25.92
2019-05-15T06:07:06.260Z,25.57
2019-05-15T06:09:20.378Z,25.08
2019-05-15T06:11:50.061Z,25.33
2019-05-15T06:14:19.827Z,24.64
2019-05-15T06:16:49.553Z,23.97
2019-05-15T06:19:19.226Z,22.98
2019-05-15T06:21:56.843Z,23.63
2019-05-15T06:24:20.382Z,23.64
2019-05-15T06:26:51.062Z,23.68
2019-05-15T06:29:20.747Z,23.27
2019-05-15T06:31:50.565Z,23.45
2019-05-15T06:34:20.327Z,22.94
2019-05-15T06:36:49.994Z,22.91
2019-05-15T06:39:19.676Z,23.08
2019-05-15T06:41:49.364Z,23.78
2019-05-15T06:44:19.076Z,23.33
2019-05-15T06:46:48.727Z,23.20
2019-05-15T06:49:18.442Z,22.89
2019-05-15T06:51:48.704Z,23.84
2019-05-15T06:54:19.026Z,22.84
2019-05-15T06:56:49.242Z,22.51
2019-05-15T06:59:19.297Z,22.32
2019-05-15T07:01:48.976Z,22.87
2019-05-15T07:04:18.704Z,21.65
2019-05-15T07:06:48.873Z,21.52
2019-05-15T07:09:18.830Z,21.73
2019-05-15T07:11:48.556Z,21.73
2019-05-15T07:14:18.307Z,21.98
2019-05-15T07:16:48.911Z,21.98
2019-05-15T07:19:19.197Z,21.64
2019-05-15T07:21:49.946Z,20.87
2019-05-15T07:24:19.638Z,21.33
2019-05-15T07:26:49.309Z,21.11
2019-05-15T07:29:19.125Z,21.02
2019-05-15T07:31:48.801Z,19.71
2019-05-15T07:34:19.564Z,19.58
2019-05-15T07:36:49.487Z,20.12
2019-05-15T07:39:20.239Z,19.53
2019-05-15T07:41:49.915Z,20.03
2019-05-15T07:44:19.595Z,19.59
2019-05-15T07:46:49.317Z,20.38
2019-05-15T07:49:19.000Z,20.34
2019-05-15T07:51:49.114Z,20.53
2019-05-15T07:54:21.638Z,20.52
2019-05-15T07:56:51.304Z,20.89
2019-05-15T07:59:20.963Z,20.12
2019-05-15T08:01:50.833Z,20.05
2019-05-15T08:04:28.893Z,20.24
2019-05-15T08:06:52.061Z,19.27
2019-05-15T08:09:22.012Z,20.84
2019-05-15T08:11:51.740Z,21.40
2019-05-15T08:14:21.434Z,22.44
2019-05-15T08:16:51.117Z,23.18
2019-05-15T08:19:20.903Z,24.15
2019-05-15T08:21:51.819Z,25.00
2019-05-15T08:24:21.917Z,24.65
2019-05-15T08:26:51.571Z,23.63
2019-05-15T08:29:21.910Z,23.93
2019-05-15T08:31:52.937Z,23.78
2019-05-15T08:34:22.584Z,23.58
2019-05-15T08:36:52.715Z,23.30
2019-05-15T08:39:22.673Z,22.69
2019-05-15T08:41:52.351Z,23.43
2019-05-15T08:44:22.039Z,22.87
2019-05-15T08:46:51.936Z,21.77
2019-05-15T08:49:21.566Z,21.57
2019-05-15T08:51:51.304Z,20.67
2019-05-15T08:54:20.993Z,19.38
2019-05-15T08:56:50.735Z,20.07
2019-05-15T08:59:20.429Z,20.57
2019-05-15T09:01:50.104Z,20.02
2019-05-15T09:04:30.814Z,20.71
2019-05-15T09:06:51.285Z,20.85
2019-05-15T09:09:20.977Z,20.93
2019-05-15T09:11:50.733Z,20.09
2019-05-15T09:14:20.435Z,21.27
2019-05-15T09:16:50.198Z,20.41
2019-05-15T09:19:19.966Z,20.23
2019-05-15T09:21:49.700Z,20.15
2019-05-15T09:24:19.972Z,18.96
2019-05-15T09:26:50.013Z,19.60
2019-05-15T09:29:19.691Z,21.35
2019-05-15T09:31:49.365Z,20.99
2019-05-15T09:34:19.065Z,19.43
2019-05-15T09:36:48.831Z,20.26
2019-05-15T09:39:18.782Z,20.43
2019-05-15T09:41:48.901Z,20.14
2019-05-15T09:44:21.801Z,18.26
2019-05-15T09:46:50.186Z,19.23
2019-05-15T09:49:19.858Z,20.85
2019-05-15T09:51:49.573Z,19.73
2019-05-15T09:54:19.593Z,21.04
2019-05-15T09:56:49.619Z,22.22
2019-05-15T09:59:19.364Z,22.78
2019-05-15T10:01:49.023Z,22.08
2019-05-15T10:04:19.175Z,21.88
2019-05-15T10:06:49.292Z,23.16
2019-05-15T10:09:22.462Z,22.56
2019-05-15T10:11:52.134Z,23.04
2019-05-15T10:14:21.809Z,22.90
2019-05-15T10:16:51.494Z,21.58
2019-05-15T10:19:22.155Z,20.24
2019-05-15T10:21:53.476Z,21.56
2019-05-15T10:24:23.231Z,22.80
2019-05-15T10:26:52.927Z,23.47
2019-05-15T10:29:22.631Z,22.39
2019-05-15T10:31:52.327Z,23.49
2019-05-15T10:34:22.969Z,24.32
2019-05-15T10:36:52.750Z,24.81
2019-05-15T10:39:22.443Z,24.89
2019-05-15T10:41:52.230Z,24.94
2019-05-15T10:44:21.905Z,25.13
2019-05-15T10:46:51.590Z,25.42
2019-05-15T10:49:21.397Z,23.69
2019-05-15T10:51:51.102Z,24.12
2019-05-15T10:54:20.834Z,24.53
2019-05-15T10:56:50.534Z,24.93
2019-05-15T10:59:20.204Z,25.27
2019-05-15T11:01:49.882Z,22.31
2019-05-15T11:04:19.547Z,22.31
2019-05-15T11:06:49.274Z,21.97
2019-05-15T11:09:19.857Z,21.27
2019-05-15T11:11:51.670Z,21.51
2019-05-15T11:14:22.079Z,21.89
2019-05-15T11:16:51.764Z,22.27
2019-05-15T11:19:21.434Z,22.85
2019-05-15T11:21:51.141Z,22.63
2019-05-15T11:24:20.808Z,20.56
2019-05-15T11:26:50.499Z,19.72
2019-05-15T11:29:20.160Z,20.68
2019-05-15T11:31:49.838Z,21.10
2019-05-15T11:34:19.499Z,22.03
2019-05-15T11:36:49.205Z,22.50
2019-05-15T11:39:18.987Z,23.15
2019-05-15T11:41:49.451Z,23.99
2019-05-15T11:44:20.412Z,23.91
2019-05-15T11:46:50.097Z,24.17
2019-05-15T11:49:19.780Z,23.68
2019-05-15T11:51:49.502Z,23.68
2019-05-15T11:54:19.358Z,23.44
2019-05-15T11:56:49.315Z,23.42
2019-05-15T11:59:19.313Z,24.03
2019-05-15T12:01:49.090Z,24.00
2019-05-15T12:04:27.763Z,24.68
2019-05-15T12:07:01.510Z,23.08
2019-05-15T12:09:22.863Z,23.86
2019-05-15T12:11:52.526Z,21.57
2019-05-15T12:14:22.187Z,21.57
2019-05-15T12:17:05.152Z,21.90
2019-05-15T12:19:23.245Z,22.31
2019-05-15T12:21:52.942Z,23.17
2019-05-15T12:24:22.717Z,23.17
2019-05-15T12:26:52.431Z,22.98
2019-05-15T12:29:22.154Z,21.63
2019-05-15T12:31:51.855Z,21.07
2019-05-15T12:34:21.519Z,20.44
2019-05-15T12:36:57.390Z,19.68
2019-05-15T12:39:22.571Z,19.13
2019-05-15T12:59:40.479Z,23.59
2019-05-15T13:02:04.280Z,22.91
2019-05-15T13:04:33.973Z,23.11
2019-05-15T13:07:12.838Z,23.05
2019-05-15T13:09:35.026Z,23.24
2019-05-15T13:12:04.802Z,22.79
2019-05-15T13:14:34.632Z,22.18
2019-05-15T13:17:04.291Z,23.61
2019-05-15T13:19:33.997Z,22.68
2019-05-15T13:22:16.199Z,22.27
2019-05-15T13:24:35.120Z,22.15
2019-05-15T13:27:04.767Z,21.64
2019-05-15T13:29:34.470Z,21.67
2019-05-15T13:32:04.223Z,21.27
2019-05-15T13:34:33.976Z,21.82
2019-05-15T13:37:03.646Z,21.52
2019-05-15T13:39:33.348Z,20.61
2019-05-15T13:42:03.170Z,20.89
2019-05-15T13:44:32.888Z,21.12
2019-05-15T13:47:02.544Z,21.61
2019-05-15T13:49:32.256Z,21.31
2019-05-15T13:52:01.969Z,21.28
2019-05-15T13:54:31.657Z,20.79
2019-05-15T13:57:01.374Z,20.52
2019-05-15T13:59:31.082Z,19.07
2019-05-15T14:02:00.759Z,19.50
2019-05-15T14:04:30.500Z,20.51
2019-05-15T14:07:00.189Z,20.67
2019-05-15T14:09:33.603Z,20.28
2019-05-15T14:12:01.252Z,20.44
2019-05-15T14:14:31.015Z,20.63
2019-05-15T14:17:00.691Z,21.01
2019-05-15T14:19:30.391Z,20.83
2019-05-15T14:22:00.108Z,20.91
2019-05-15T14:24:29.803Z,21.00
2019-05-15T14:26:59.524Z,21.78
2019-05-15T14:29:29.372Z,20.43
2019-05-15T14:31:59.149Z,20.79
2019-05-15T14:34:29.149Z,21.09
2019-05-15T14:36:59.292Z,21.19
2019-05-15T14:39:29.928Z,20.74
2019-05-15T14:41:59.713Z,21.47
2019-05-15T14:44:29.410Z,21.87
2019-05-15T14:46:59.061Z,22.25
2019-05-15T14:49:34.234Z,21.93
2019-05-15T14:52:08.229Z,22.01
2019-05-15T14:54:31.597Z,22.28
2019-05-15T14:57:01.507Z,22.27
2019-05-15T14:59:31.194Z,21.67
2019-05-15T15:02:01.131Z,21.86
2019-05-15T15:04:30.824Z,21.93
2019-05-15T15:07:00.487Z,22.08
2019-05-15T15:09:30.169Z,22.87
2019-05-15T15:11:59.886Z,22.86
2019-05-15T15:14:29.637Z,23.41
2019-05-15T15:16:59.402Z,23.85
2019-05-15T15:19:29.375Z,23.60
2019-05-15T15:21:59.031Z,23.39
2019-05-15T15:24:28.684Z,23.22
2019-05-15T15:26:58.972Z,23.07
2019-05-15T15:29:28.815Z,22.96
2019-05-15T15:31:59.033Z,23.33
2019-05-15T15:34:28.846Z,23.41
2019-05-15T15:36:58.524Z,23.13
2019-05-15T15:39:28.307Z,22.68
2019-05-15T15:41:58.044Z,22.72
2019-05-15T15:44:28.233Z,22.80
2019-05-15T15:46:59.099Z,23.39
2019-05-15T15:49:29.194Z,22.87
2019-05-15T15:51:59.191Z,23.69
2019-05-15T15:54:28.846Z,23.32
2019-05-15T15:56:58.524Z,23.10
2019-05-15T15:59:28.939Z,23.43
2019-05-15T16:01:59.830Z,23.51
2019-05-15T16:04:29.983Z,23.40
2019-05-15T16:06:59.682Z,23.93
2019-05-15T16:09:29.332Z,23.27
2019-05-15T16:11:58.998Z,23.59
2019-05-15T16:14:28.854Z,23.02
2019-05-15T16:16:58.595Z,22.50
2019-05-15T16:19:28.492Z,23.14
2019-05-15T16:21:59.573Z,23.33
2019-05-15T16:24:29.442Z,22.77
2019-05-15T16:27:00.886Z,23.05
2019-05-15T16:29:30.845Z,22.74
2019-05-15T16:32:00.525Z,23.01
2019-05-15T16:34:30.186Z,23.32
2019-05-15T16:36:59.859Z,23.64
2019-05-15T16:39:29.509Z,23.89
2019-05-15T16:41:59.540Z,24.08
2019-05-15T16:44:30.352Z,23.76
2019-05-15T16:47:00.019Z,23.48
2019-05-15T16:49:29.751Z,23.49
2019-05-15T16:51:59.427Z,23.43
2019-05-15T16:54:29.140Z,23.66
2019-05-15T16:56:59.615Z,24.67
2019-05-15T16:59:35.544Z,24.49
2019-05-15T17:02:01.035Z,24.83
2019-05-15T17:04:30.673Z,24.68
2019-05-15T17:07:00.357Z,23.69
2019-05-15T17:09:30.016Z,24.02
2019-05-15T17:11:59.743Z,23.06
2019-05-15T17:14:29.457Z,23.12
2019-05-15T17:17:00.122Z,23.26
2019-05-15T17:19:29.802Z,23.19
2019-05-15T17:21:59.501Z,22.96
2019-05-15T17:24:29.246Z,23.76
2019-05-15T17:26:59.758Z,23.83
2019-05-15T17:29:29.587Z,23.31
2019-05-15T17:31:59.483Z,23.16
2019-05-15T17:34:29.190Z,23.42
2019-05-15T17:36:58.973Z,23.49
2019-05-15T17:39:36.865Z,23.15
2019-05-15T17:42:00.146Z,23.69
2019-05-15T17:44:29.854Z,24.05
2019-05-15T17:46:59.614Z,23.85
2019-05-15T17:49:29.292Z,24.30
2019-05-15T17:51:59.068Z,25.66
2019-05-15T17:54:29.711Z,26.40
2019-05-15T17:56:59.391Z,26.94
2019-05-15T17:59:29.146Z,27.69
2019-05-15T18:01:59.526Z,27.98
2019-05-15T18:04:29.443Z,28.10
2019-05-15T18:06:59.273Z,28.00
2019-05-15T18:09:29.088Z,28.38
2019-05-15T18:11:58.842Z,28.84
2019-05-15T18:14:28.742Z,29.20
2019-05-15T18:16:58.707Z,29.51
2019-05-15T18:19:29.498Z,29.86
2019-05-15T18:21:59.390Z,30.12
2019-05-15T18:24:29.221Z,30.72
2019-05-15T18:26:58.906Z,30.40
2019-05-15T18:29:30.094Z,31.11
2019-05-15T18:31:59.798Z,31.13
2019-05-15T18:34:29.544Z,31.23
2019-05-15T18:36:59.247Z,31.67
2019-05-15T18:39:29.030Z,31.48
2019-05-15T18:41:58.680Z,31.46
2019-05-15T18:44:28.752Z,31.72
2019-05-15T18:46:59.437Z,32.17
2019-05-15T18:49:29.513Z,31.87
2019-05-15T18:51:59.602Z,31.87
2019-05-15T18:54:29.292Z,32.11
2019-05-15T18:56:58.976Z,32.13
2019-05-15T18:59:28.838Z,32.26
2019-05-15T19:01:58.723Z,32.45
2019-05-15T19:04:29.804Z,32.78
2019-05-15T19:07:01.248Z,33.06
2019-05-15T19:09:31.368Z,33.10
2019-05-15T19:12:01.038Z,33.08
2019-05-15T19:14:30.994Z,33.33
2019-05-15T19:17:00.677Z,33.17
2019-05-15T19:19:30.340Z,33.34
2019-05-15T19:22:00.122Z,33.35
2019-05-15T19:24:29.825Z,33.51
2019-05-15T19:26:59.569Z,33.83
2019-05-15T19:29:29.250Z,34.04
2019-05-15T19:31:59.326Z,34.87
2019-05-15T19:34:32.009Z,35.24
2019-05-15T19:37:01.681Z,35.76
2019-05-15T19:39:31.606Z,36.21
2019-05-15T19:42:01.301Z,36.66
2019-05-15T19:44:31.352Z,37.14
2019-05-15T19:47:01.024Z,38.83
2019-05-15T19:49:30.774Z,39.59
2019-05-15T19:52:00.717Z,40.65
2019-05-15T19:54:30.787Z,41.05
2019-05-15T19:57:00.675Z,42.74
2019-05-15T19:59:30.379Z,44.49
2019-05-15T20:02:00.383Z,46.23
2019-05-15T20:04:30.225Z,46.44
2019-05-15T20:07:00.960Z,44.99
2019-05-15T20:09:30.644Z,45.54
2019-05-15T20:12:00.577Z,46.49
2019-05-15T20:14:30.402Z,47.06
2019-05-15T20:17:00.422Z,46.82
2019-05-15T20:19:30.430Z,47.44
2019-05-15T20:22:00.092Z,48.00
2019-05-15T20:24:31.087Z,48.72
2019-05-15T20:27:00.812Z,48.95
2019-05-15T20:29:30.908Z,49.52
2019-05-15T20:32:00.595Z,48.86
2019-05-15T20:34:30.283Z,49.65
2019-05-15T20:37:00.041Z,49.73
2019-05-15T20:39:29.884Z,49.71
2019-05-15T20:41:59.601Z,50.03
2019-05-15T20:44:29.364Z,49.59
2019-05-15T20:46:59.198Z,49.74
2019-05-15T20:49:29.195Z,49.52
2019-05-15T20:51:58.867Z,49.37
2019-05-15T20:54:28.586Z,49.33
2019-05-15T20:56:58.482Z,49.31
2019-05-15T20:59:29.151Z,49.16
2019-05-15T21:01:59.454Z,49.28
2019-05-15T21:04:29.436Z,49.64
2019-05-15T21:06:59.214Z,49.48
2019-05-15T21:09:51.121Z,49.51
2019-05-15T21:12:20.976Z,49.60
2019-05-15T21:14:50.686Z,49.70
2019-05-15T21:17:20.530Z,49.79
2019-05-15T21:19:50.221Z,48.92
2019-05-15T21:22:19.905Z,49.78
2019-05-15T21:24:49.837Z,49.48
2019-05-15T21:27:24.190Z,49.21
2019-05-15T21:29:50.906Z,49.38
2019-05-15T21:32:20.880Z,49.32
2019-05-15T21:34:50.571Z,50.00
2019-05-15T21:37:20.259Z,50.57
2019-05-15T21:39:49.947Z,50.62
2019-05-15T21:42:19.723Z,51.12
2019-05-15T21:44:49.464Z,50.92
2019-05-15T21:47:19.305Z,50.99
2019-05-15T21:49:49.058Z,50.85
2019-05-15T21:52:20.710Z,51.03
2019-05-15T21:54:50.457Z,50.90
2019-05-15T21:57:32.945Z,50.93
2019-05-15T21:59:51.812Z,50.67
2019-05-15T22:02:21.564Z,50.80
2019-05-15T22:04:55.978Z,50.86
2019-05-15T22:07:23.210Z,50.74
2019-05-15T22:09:53.024Z,50.71
2019-05-15T22:12:22.774Z,50.88
2019-05-15T22:14:52.500Z,50.66
2019-05-15T22:17:22.237Z,50.54
2019-05-15T22:19:52.159Z,50.62
2019-05-15T22:22:21.934Z,50.68
2019-05-15T22:24:51.717Z,50.49
2019-05-15T22:27:22.373Z,50.34
2019-05-15T22:29:52.194Z,50.30
2019-05-15T22:32:21.860Z,49.65
2019-05-15T22:35:05.660Z,49.69
2019-05-15T22:37:23.133Z,49.54
2019-05-15T22:39:52.811Z,49.31
2019-05-15T22:42:22.562Z,49.56
2019-05-15T22:44:52.380Z,49.85
2019-05-15T22:47:22.069Z,49.66
2019-05-15T22:49:51.738Z,49.72
2019-05-15T22:52:21.588Z,49.66
2019-05-15T22:54:51.362Z,49.64
2019-05-15T22:57:21.053Z,49.56
2019-05-15T22:59:50.840Z,49.46
2019-05-15T23:02:20.502Z,49.19
2019-05-15T23:04:50.174Z,49.36
2019-05-15T23:07:19.878Z,48.49
2019-05-15T23:09:49.641Z,48.61
2019-05-15T23:12:19.286Z,48.34
2019-05-15T23:14:49.025Z,48.47
2019-05-15T23:17:18.775Z,48.37
2019-05-15T23:19:48.688Z,48.43
2019-05-15T23:22:18.696Z,48.49
2019-05-15T23:24:48.729Z,48.29
2019-05-15T23:27:18.452Z,47.96
2019-05-15T23:29:49.093Z,48.13
2019-05-15T23:32:19.066Z,47.71
2019-05-15T23:34:49.237Z,47.59
2019-05-15T23:37:19.019Z,47.52
2019-05-15T23:39:49.753Z,47.52
2019-05-15T23:42:19.435Z,47.56
2019-05-15T23:44:49.115Z,47.98
2019-05-15T23:47:18.812Z,48.15
2019-05-15T23:49:50.102Z,48.01
2019-05-15T23:52:19.792Z,48.10
2019-05-15T23:54:49.449Z,47.85
2019-05-15T23:57:19.142Z,48.13
2019-05-15T23:59:48.796Z,47.97
